Página principal
METAR-TAF:

METAR-TAF

Aeroportos :

Aeroporto Internacional de Belgrado

Belgrado, Sérvia

latitude: 44-49N, longitude: 020-17E, altura: 96 m

Observação actual do tempo

O boletim foi feito há 21 minutos, às 19:30 UTC
Vento 3 kt de norte
Temperatura -3°C
Humidade 68%
Pressão 1039 hPa
Visibilidade 10 km ou mais
sem nuvens abaixo de 1500 metros e sem cumulonimbus

METAR: LYBE 231930Z 35003KT CAVOK M03/M08 Q1039 NOSIG

Hora: 20:51 (19:51 UTC)

Previsão

O boletim foi feito há 2 horas e 51 minutos, às 17:00 UTC
Previsão válida de 23 às 18 UTC a 24 às 18 UTC
Vento 6 kt de norte
Visibilidade 10 km ou mais
sem nuvens abaixo de 1500 metros e sem cumulonimbus

TAF: LYBE 231700Z 2318/2418 35006KT CAVOK TX04/2413Z TNM09/2406Z

Observações e previsões do tempo de mais de 4000 aeroportos (mensagens METAR e TAF).

As estações disponíveis são os pontos amarelos e vermelhos sobre o mapa.

Mova o rato sobre o mapa para ver o nome da estação.

Depois clique no ponto para visualizar as observações e previsões meteorológicas.

Para alterar o mapa : clique nos botões verdes com uma cruz preta para aumentar o zoom; no botão verde com uma pitada de zoom; ou nas setas verdes para mapas adjacentes.


METAR-TAF: